Marshfield, Indiana
Current Conditions -  °F | °C
As of 7:15 AM on Monday 20 Oct 2014 (Local Time) from KDNV Reporting Station
Overcast Overcast  
Wind Chill: 50°   Ceiling: 6000
Heat Index: 50°   Visibility: 10mi
Dew Point: 46°   Wind: 9mph
Humidity: 86%   Direction: 210°SSW
Pressure: 29.87"   Gusts: NA
Location:  40.3333°N, 87.2831°W
Report Text: KDNV 201115Z AUTO 21008KT 10SM OVC060 10/08 A2987 RMK AO2 T01000078
Loading
Personal Weather Stations






























Interactive Weather Map
Tropical Storm Tracking
New forecast layout! Learn more

10-Day Weather Forecast

Advertisements
Track Severe Weather on mobile